x

Tanner Bank - 121nm West Of San Diego, Ca (46047) Wave Buoy

10:50 - Sun 28th Aug 2016 All times are PDT. -7 hours from GMT.

  • Sig Wave height 6.9ft
  • Swell Direction
  • Peak Period 7s
  • Average Period 6s
  • Wind
    20mph, 25mph gusts
  • Sea Temp 65°f
  • Air Temp 64°f
  • Sea Pressure 1016mb
  • Tanner Bank - 121nm West Of San Diego, Ca
  • Tanner Bank - 121nm West Of San Diego, Ca

More Historic Weather Station data

Upgrade to MSW Pro to gain access to the past 30 days of data for over 8000 Wavebouys and Weather Stations around the globe.

Join Pro

Comparision Forecast

View Surf forecast
   
dim. 08/28 10:50 7ft 7s 6s 20 25 mph 1016mb 65f 64f
9:50 7.5ft 7s 6s 25 29 mph 1015.6mb 65f 64f
8:50 6ft 6s 6s 25 29 mph 1015mb 65f 64f
7:50 6ft 6s 6s 22 29 mph 1014.7mb 65f 64f
6:50 6ft 6s 5s 25 27 mph 1014.5mb 65f 64f
5:50 5ft 6s 5s 22 27 mph 1014.9mb 65f 64f
4:50 5.5ft 6s 5s 22 27 mph 1015.2mb 65f 64f
3:50 5ft 10s 5s 20 25 mph 1015.8mb 65f 64f
2:50 5ft 6s 5s 20 25 mph 1016.4mb 65f 64f
1:50 5ft 6s 5s 18 22 mph 1017.2mb 65f 64f
12:50 5ft 6s 5s 18 20 mph 1017.5mb 65f 64f
11:50 6ft 10s 6s 18 22 mph 1017.7mb 65f 63f
10:50 5.5ft 6s 6s 18 20 mph 1017.8mb 65f 63f
9:50 5ft 10s 6s 16 22 mph 1017.6mb 65f 63f
8:50 5ft 10s 6s 16 22 mph 1017.3mb 65f 63f
7:50 5ft 10s 6s 18 22 mph 1017.1mb 65f 63f
6:50 5.5ft 10s 6s 16 20 mph 1016.5mb 65f 63f
5:50 5ft 10s 6s 16 18 mph 1016.1mb 65f 63f
4:50 5ft 10s 6s 18 22 mph 1015.7mb 65f 63f
3:50 5ft 11s 6s 16 20 mph 1015.8mb 65f 63f
2:50 5ft 11s 6s 13 16 mph 1016.2mb 65f 63f
1:50 5ft 10s 6s 16 20 mph 1016mb 65f 63f
12:50 5ft 10s 6s 16 20 mph 1016.3mb 65f 63f
sam. 08/27 11:50 5ft 10s 6s 13 16 mph 1016.5mb 65f 63f
10:50 5ft 10s 6s 16 18 mph 1016.4mb 65f 63f
9:50 4.5ft 5s 6s 16 18 mph 1016.2mb 65f 64f
8:50 5ft 10s 6s 16 18 mph 1015.5mb 65f 64f
7:50 4.5ft 14s 6s 16 20 mph 1014.7mb 65f 64f
6:50 4ft 13s 5s 16 20 mph 1014.4mb 65f 64f
5:50 4.5ft 13s 6s 16 18 mph 1014.8mb 65f 64f
4:50 4ft 13s 6s 16 18 mph 1015mb 65f 64f
3:50 4.5ft 14s 6s 13 16 mph 1015.4mb 65f 64f
2:50 3.5ft 14s 6s 16 18 mph 1015.7mb 65f 64f
1:50 3.5ft 13s 6s 13 16 mph 1016.4mb 65f 64f
12:50 3.5ft 13s 6s 13 16 mph 1016.6mb 65f 64f
11:50 4ft 14s 6s 11 13 mph 1016.9mb 65f 64f
10:50 4ft 14s 6s 7 9 mph 1017.1mb 65f 64f
9:50 4.5ft 15s 7s 7 9 mph 1016.8mb 65f 64f
8:50 4ft 14s 6s 9 13 mph 1016.3mb 65f 64f
7:50 4ft 14s 7s 7 9 mph 1015.8mb 65f 64f
6:50 3.5ft 15s 6s 9 11 mph 1015.4mb 65f 64f
5:50 4ft 13s 6s 9 11 mph 1014.8mb 65f 64f
4:50 3.5ft 15s 6s 9 13 mph 1014.4mb 65f 64f
3:50 4ft 14s 6s 9 13 mph 1014.3mb 64f 64f
2:50 4ft 14s 6s 11 13 mph 1014.7mb 64f 63f
1:50 4.5ft 15s 6s 9 13 mph 1014.9mb 64f 63f
12:50 4.5ft 14s 6s 13 18 mph 1014.8mb 64f 63f
ven. 08/26 11:50 4.5ft 15s 6s 11 16 mph 1015.3mb 64f 64f
10:50 4ft 15s 6s 11 16 mph 1015.5mb 64f 63f
9:50 4.5ft 14s 6s 11 18 mph 1015.1mb 64f 63f
8:50 4ft 14s 6s 16 18 mph 1014.7mb 65f 63f
7:50 4.5ft 15s 6s 13 16 mph 1014.2mb 65f 64f
6:50 4.5ft 14s 7s 13 18 mph 1013.9mb 65f 63f
5:50 4.5ft 14s 7s 13 16 mph 1014.1mb 65f 63f
4:50 4.5ft 14s 7s 11 13 mph 1014.3mb 65f 63f
3:50 4.5ft 15s 7s 7 9 mph 1014.6mb 65f 63f
2:50 4.5ft 14s 7s 4 7 mph 1014.9mb 65f 63f
1:50 3.5ft 14s 7s 4 9 mph 1015.6mb 65f 63f
12:50 4ft 14s 7s 4 7 mph 1015.8mb 65f 63f
11:50 3.5ft 16s 6s 4 7 mph 1015.8mb 64f 63f
10:50 4ft 14s 7s 4 7 mph 1015.8mb 64f 63f
9:50 4.5ft 14s 6s 7 9 mph 1015.5mb 64f 63f
8:50 4.5ft 14s 7s 9 11 mph 1015mb 64f 63f
7:50 4.5ft 15s 7s 4 7 mph 1014.7mb 64f 63f
6:50 4.5ft 15s 6s 4 9 mph 1014.1mb 64f 62f
5:50 4ft 14s 7s 9 11 mph 1013.7mb 64f 62f
4:50 4ft 14s 7s 9 13 mph 1013.3mb 64f 62f
3:50 4.5ft 14s 7s 7 11 mph 1013.5mb 64f 62f
2:50 3.5ft 15s 6s 7 9 mph 1013.5mb 64f 62f
1:50 4ft 15s 7s 4 9 mph 1013.5mb 64f 62f
12:50 4ft 14s 7s 9 11 mph 1013.9mb 64f 62f
jeu. 08/25 11:50 4ft 14s 6s 4 9 mph 1013.9mb 64f 62f
10:50 4ft 15s 6s 9 11 mph 1013.9mb 64f 62f
9:50 4ft 15s 6s 11 13 mph 1014.1mb 64f 62f
8:50 4ft 15s 6s 13 18 mph 1013.5mb 64f 62f
7:50 4ft 15s 6s 11 16 mph 1013.1mb 64f 62f
6:50 4.5ft 15s 6s 11 13 mph 1013mb 64f 62f
5:50 4.5ft 15s 6s 11 13 mph 1013.2mb 64f 62f
4:50 4.5ft 15s 6s 13 16 mph 1013.5mb 65f 62f
3:50 4.5ft 16s 6s 13 18 mph 1013.9mb 65f 62f
2:50 4.5ft 6s 5s 13 16 mph 1014.2mb 64f 62f
1:50 4.5ft 14s 5s 11 16 mph 1014.7mb 64f 62f
12:50 4.5ft 15s 5s 16 18 mph 1015mb 64f 62f
11:50 4.5ft 6s 5s 13 18 mph 1015.8mb 64f 62f
10:50 4.5ft 6s 6s 13 18 mph 1015.9mb 64f 62f
9:50 5ft 6s 5s 16 18 mph 1015.8mb 64f 61f
8:50 5ft 7s 6s 16 20 mph 1015.5mb 64f 61f
7:50 5.5ft 6s 6s 16 20 mph 1015.4mb 64f 61f